Terminal Aerodrome Forecast
Issued by NWS

Home | Current Version | Previous Version | Text Only | Print | Product List | Glossary On
Versions: 1 2 3 4 5 6 7 8 9 10 11 12 13 14 15 16
000
FTUS44 KLZK 251100
TAFHOT
TAF
KHOT 251121Z 2512/2612 27003KT P6SM VCSH SCT060
     FM251500 29010G18KT P6SM BKN060
     FM252100 29012G22KT P6SM SCT060 PROB30 2521/2603 -SHRA
     FM260300 VRB06KT P6SM SCT250=

USA.gov is the U.S. government's official web portal to all federal, state and local government web resources and services.